aviador You're here:

OEDF Decoded Metar

DAMMAM in SAUDI ARABIA
Report Time2017-09-22 15:00:00
UTC Time2017-09-22 15:23:39
Flight Rules vfr VFR
Wind080° at 11 kt
W.Decomp.*RWY 16: 1.5 kt HW 10.9 kt LCW
W.Rank080° ranks 12
Current wind is above 080° avg. (8.3)
Visibility9999 m
Phenomena:N/A
Clouds:N/A
Expected CloudBase > 5,600 ft AGL from Temp-Dew spread
CeilingNone
Temp35°C (ISA +20)
Dew Point21°C (44% RH)
Heat Index38.5°C
QNH1004 hPa
Density Alt2,989 ft
Elevation72 ft
Report Wrong Elevation
Raw Report
METAR OEDF 221500Z 08011KT CAVOK 35/21 Q1004 NOSIG=

Extra information for OEDF:More info

Metar Taf Metar & Taf Last 4 Metars F.Rules Stats Wind Profile Meteogram Temp Stats Airport Information Weather charts Add Link Nearby VenuesMetar ALERT Operation Metar Decoded Social comments